Time;durP1;ratioP1;P1;durP2;ratioP2;P2;SDS_P1;SDS_P2;PMS_P1;PMS_P2;Temp;Humidity;BMP_temperature;BMP_pressure;BME280_temperature;BME280_humidity;BME280_pressure;Samples;Min_cycle;Max_cycle;Signal;HPM_P1;HPM_P2
2023/10/08 00:01:13;;;;;;;7.97;7.27;;;17.20;12.30;;;;;;4991811;28;20429;-55
2023/10/08 00:03:40;;;;;;;7.20;6.57;;;17.20;12.30;;;;;;4991902;28;20483;-53
2023/10/08 00:06:06;;;;;;;7.47;6.77;;;17.20;12.60;;;;;;4991718;28;20587;-52
2023/10/08 00:08:33;;;;;;;9.33;7.37;;;17.20;12.10;;;;;;4991057;28;20454;-54
2023/10/08 00:11:05;;;;;;;7.77;7.03;;;17.10;12.30;;;;;;4991374;28;20421;-53
2023/10/08 00:13:32;;;;;;;8.30;7.70;;;17.10;12.40;;;;;;4991417;28;20838;-53
2023/10/08 00:15:59;;;;;;;7.90;7.20;;;17.10;12.40;;;;;;4991577;28;20472;-54
2023/10/08 00:18:25;;;;;;;7.63;7.13;;;17.10;12.20;;;;;;4991620;28;20413;-53
2023/10/08 00:23:35;;;;;;;8.10;7.43;;;17.20;12.50;;;;;;4992985;28;20456;-53
2023/10/08 00:26:04;;;;;;;7.60;7.00;;;17.20;12.70;;;;;;4991334;28;20832;-52
2023/10/08 00:28:31;;;;;;;7.87;7.27;;;17.20;12.60;;;;;;4991803;28;20420;-54
2023/10/08 00:31:12;;;;;;;7.60;6.97;;;17.10;12.30;;;;;;4991069;28;20425;-54
2023/10/08 00:33:38;;;;;;;7.17;6.67;;;17.20;12.50;;;;;;4991891;28;20424;-53
2023/10/08 00:36:20;;;;;;;8.70;7.90;;;17.20;12.20;;;;;;4990810;28;20576;-54
2023/10/08 00:38:53;;;;;;;7.10;6.50;;;17.20;12.30;;;;;;4991372;28;20428;-54
2023/10/08 00:41:21;;;;;;;7.03;6.40;;;17.30;11.90;;;;;;4991711;28;20882;-53
2023/10/08 00:43:48;;;;;;;9.00;7.80;;;17.20;11.70;;;;;;4991311;28;20424;-54
2023/10/08 00:48:46;;;;;;;7.53;6.93;;;17.20;11.40;;;;;;4992251;28;20459;-52
2023/10/08 00:51:40;;;;;;;7.57;7.00;;;17.30;11.20;;;;;;4991417;28;20492;-50
2023/10/08 00:54:10;;;;;;;7.77;7.17;;;17.30;11.20;;;;;;4991527;28;20476;-53
2023/10/08 00:59:22;;;;;;;7.33;6.73;;;17.30;11.30;;;;;;4991941;28;20440;-53
2023/10/08 01:01:52;;;;;;;7.60;6.90;;;17.30;11.20;;;;;;4990651;28;20421;-52
2023/10/08 01:04:23;;;;;;;8.10;7.50;;;17.40;11.30;;;;;;4990531;28;20503;-52
2023/10/08 01:06:55;;;;;;;6.97;6.37;;;17.40;11.30;;;;;;4990540;28;20417;-55
2023/10/08 01:09:22;;;;;;;7.40;6.70;;;17.40;11.30;;;;;;4990600;28;20471;-55
2023/10/08 01:12:20;;;;;;;7.13;6.67;;;17.40;10.90;;;;;;4990378;28;20460;-54
2023/10/08 01:14:47;;;;;;;7.07;6.50;;;17.40;10.60;;;;;;4990604;28;20421;-55
2023/10/08 01:17:19;;;;;;;7.00;6.30;;;17.40;10.50;;;;;;4990815;28;20507;-55
2023/10/08 01:19:54;;;;;;;7.97;7.17;;;17.40;10.50;;;;;;4990245;28;20925;-54
2023/10/08 01:22:21;;;;;;;7.13;6.60;;;17.40;10.30;;;;;;4990143;28;20479;-54
2023/10/08 01:24:50;;;;;;;6.87;6.33;;;17.40;10.20;;;;;;4989915;28;20413;-53
2023/10/08 01:27:24;;;;;;;6.27;5.80;;;17.40;10.30;;;;;;4989698;28;20424;-54
2023/10/08 01:29:51;;;;;;;6.80;6.10;;;17.40;10.20;;;;;;4989928;28;20956;-54
2023/10/08 01:32:19;;;;;;;6.57;5.97;;;17.40;10.10;;;;;;4990100;28;20816;-54
2023/10/08 01:34:45;;;;;;;6.23;5.73;;;17.40;10.50;;;;;;4990220;28;20922;-55
2023/10/08 01:37:21;;;;;;;7.20;6.60;;;17.30;10.20;;;;;;4989871;28;20422;-53
2023/10/08 01:39:49;;;;;;;6.90;6.30;;;17.30;10.20;;;;;;4990975;28;20845;-53
2023/10/08 01:42:17;;;;;;;8.07;6.20;;;17.40;10.40;;;;;;4989885;28;20516;-54
2023/10/08 01:44:47;;;;;;;8.47;7.87;;;17.30;10.50;;;;;;4989262;28;20449;-52
2023/10/08 01:47:14;;;;;;;6.53;5.93;;;17.30;10.80;;;;;;4990390;28;20468;-54
2023/10/08 01:49:39;;;;;;;6.70;6.20;;;17.30;11.20;;;;;;4989523;28;20425;-54
2023/10/08 01:52:13;;;;;;;6.17;5.77;;;17.30;11.00;;;;;;4989400;28;20579;-54
2023/10/08 01:54:38;;;;;;;7.10;6.40;;;17.30;11.20;;;;;;4989461;28;20196;-53
2023/10/08 01:57:04;;;;;;;6.43;6.03;;;17.20;11.20;;;;;;4989781;28;20420;-53
2023/10/08 01:59:32;;;;;;;6.90;6.40;;;17.20;11.20;;;;;;4989766;28;20598;-54
2023/10/08 02:01:58;;;;;;;6.70;6.10;;;17.20;11.20;;;;;;5005820;28;20428;-54
2023/10/08 02:04:25;;;;;;;7.57;6.30;;;17.20;11.20;;;;;;4989449;28;20421;-52
2023/10/08 02:06:50;;;;;;;6.93;6.33;;;17.20;11.20;;;;;;4989087;28;20398;-55
2023/10/08 02:09:16;;;;;;;6.80;6.10;;;17.20;11.20;;;;;;4989638;28;20452;-54
2023/10/08 02:11:43;;;;;;;7.30;6.40;;;17.20;11.20;;;;;;4988546;28;20205;-52
2023/10/08 02:14:09;;;;;;;6.87;6.37;;;17.10;11.10;;;;;;5005307;28;20178;-55
2023/10/08 02:16:34;;;;;;;7.37;6.67;;;17.20;11.20;;;;;;4989045;28;20413;-55
2023/10/08 02:19:00;;;;;;;6.80;6.20;;;17.10;11.50;;;;;;4989319;28;20209;-54
2023/10/08 02:21:27;;;;;;;6.93;6.23;;;17.10;11.60;;;;;;4989353;28;20188;-54
2023/10/08 02:23:52;;;;;;;6.93;6.33;;;17.00;11.90;;;;;;5002629;28;20668;-54
2023/10/08 02:26:19;;;;;;;8.47;7.33;;;17.00;12.30;;;;;;5008875;28;20424;-54
2023/10/08 02:28:45;;;;;;;6.73;6.10;;;17.00;12.20;;;;;;5008420;28;20553;-54
2023/10/08 02:31:10;;;;;;;8.20;7.50;;;17.00;12.20;;;;;;5009364;28;20460;-53
2023/10/08 02:33:36;;;;;;;7.17;6.63;;;17.00;12.90;;;;;;5008814;28;20607;-54
2023/10/08 02:36:04;;;;;;;7.63;7.00;;;17.00;12.50;;;;;;5008588;28;20265;-54
2023/10/08 02:38:37;;;;;;;8.00;7.30;;;17.00;12.70;;;;;;5008868;28;20173;-54
2023/10/08 02:41:06;;;;;;;7.30;6.60;;;17.00;13.00;;;;;;5009051;28;20979;-55
2023/10/08 02:43:34;;;;;;;8.13;7.40;;;16.90;12.90;;;;;;5007756;28;20926;-53
2023/10/08 02:46:00;;;;;;;7.07;6.57;;;16.90;13.10;;;;;;5008890;28;20420;-55
2023/10/08 02:48:27;;;;;;;7.70;6.90;;;16.80;13.20;;;;;;5009099;28;20492;-54
2023/10/08 02:50:54;;;;;;;7.17;6.47;;;16.80;13.40;;;;;;5009313;28;20757;-53
2023/10/08 02:53:23;;;;;;;7.00;6.47;;;16.80;13.50;;;;;;5009036;28;20474;-51
2023/10/08 02:55:49;;;;;;;7.77;7.13;;;16.70;13.90;;;;;;5008314;28;20435;-50
2023/10/08 02:58:18;;;;;;;13.03;7.00;;;16.60;14.20;;;;;;5009123;28;20924;-52
2023/10/08 03:00:46;;;;;;;6.60;6.10;;;16.40;14.70;;;;;;5008733;28;20416;-52
2023/10/08 03:03:16;;;;;;;8.07;6.17;;;16.40;14.50;;;;;;5008759;28;20444;-54
2023/10/08 03:05:50;;;;;;;6.80;6.20;;;16.40;14.70;;;;;;5008211;28;20420;-53
2023/10/08 03:08:23;;;;;;;7.73;6.67;;;16.50;14.80;;;;;;5009087;28;20418;-51
2023/10/08 03:10:55;;;;;;;8.50;6.50;;;16.40;14.60;;;;;;5008150;28;20416;-51
2023/10/08 03:13:22;;;;;;;7.43;6.77;;;16.40;14.90;;;;;;5008859;28;20451;-54
2023/10/08 03:18:34;;;;;;;7.00;6.40;;;16.50;14.80;;;;;;5009558;28;20418;-53
2023/10/08 03:21:03;;;;;;;7.30;6.57;;;16.40;14.80;;;;;;5008971;28;20411;-52
2023/10/08 03:23:36;;;;;;;7.37;6.63;;;16.40;15.00;;;;;;5010541;28;20503;-54
2023/10/08 03:26:28;;;;;;;7.60;6.70;;;16.40;15.00;;;;;;5012274;28;20415;-54
2023/10/08 03:28:57;;;;;;;6.00;5.60;;;16.40;14.90;;;;;;5012837;28;20431;-53
2023/10/08 03:31:43;;;;;;;6.50;6.00;;;16.50;14.70;;;;;;5012884;28;20506;-53
2023/10/08 03:34:12;;;;;;;7.70;6.90;;;16.40;14.60;;;;;;5013367;28;20412;-53
2023/10/08 03:36:44;;;;;;;6.83;6.23;;;16.40;14.70;;;;;;5011935;28;20932;-53
2023/10/08 03:39:13;;;;;;;7.23;6.53;;;16.40;14.90;;;;;;5011809;28;20419;-50
2023/10/08 03:41:40;;;;;;;6.60;6.10;;;16.40;15.40;;;;;;5011983;28;20529;-53
2023/10/08 03:44:13;;;;;;;6.70;6.10;;;16.40;15.10;;;;;;5012044;28;20932;-53
2023/10/08 03:46:42;;;;;;;8.10;7.10;;;16.40;15.00;;;;;;5011860;28;20432;-54
2023/10/08 03:51:46;;;;;;;7.33;6.70;;;16.30;15.20;;;;;;5012682;28;20873;-53
2023/10/08 03:56:45;;;;;;;7.60;6.90;;;16.30;15.10;;;;;;5013604;28;20409;-61
2023/10/08 03:59:30;;;;;;;7.10;6.60;;;16.30;15.30;;;;;;5012771;28;20559;-61
2023/10/08 04:02:23;;;;;;;7.00;6.40;;;16.10;15.60;;;;;;5012091;28;20420;-62
2023/10/08 04:04:49;;;;;;;6.97;6.27;;;16.10;16.60;;;;;;5011063;28;20493;-62
2023/10/08 04:07:24;;;;;;;7.20;6.53;;;16.20;15.80;;;;;;5011925;28;20530;-62
2023/10/08 04:10:00;;;;;;;7.90;7.20;;;16.20;15.70;;;;;;5011957;28;20212;-62
2023/10/08 04:12:27;;;;;;;6.60;5.87;;;16.20;15.70;;;;;;5011563;28;20467;-55
2023/10/08 04:14:55;;;;;;;7.37;6.67;;;16.20;15.70;;;;;;5011482;28;20424;-54
2023/10/08 04:17:22;;;;;;;6.80;6.30;;;16.30;15.90;;;;;;5011787;28;20555;-54
2023/10/08 04:19:48;;;;;;;6.57;6.07;;;16.30;15.90;;;;;;5011619;28;20475;-52
2023/10/08 04:22:17;;;;;;;6.83;6.00;;;16.30;15.90;;;;;;5012134;28;20456;-53
2023/10/08 04:24:43;;;;;;;9.27;6.37;;;16.30;15.80;;;;;;5011228;28;20208;-52
2023/10/08 04:27:09;;;;;;;6.57;5.97;;;16.30;15.70;;;;;;5012366;28;20412;-54
2023/10/08 04:29:37;;;;;;;7.30;5.90;;;16.30;15.60;;;;;;5011541;28;20412;-53
2023/10/08 04:32:12;;;;;;;6.57;5.97;;;16.30;15.70;;;;;;5011495;28;20486;-54
2023/10/08 04:34:37;;;;;;;6.83;6.30;;;16.20;15.60;;;;;;5009711;28;21009;-53
2023/10/08 04:37:12;;;;;;;6.67;6.17;;;16.10;16.00;;;;;;5011189;28;20421;-53
2023/10/08 04:39:40;;;;;;;7.40;6.63;;;16.00;16.00;;;;;;5010824;28;20179;-51
2023/10/08 04:42:14;;;;;;;6.30;5.70;;;16.00;15.80;;;;;;5010540;28;20439;-53
2023/10/08 04:44:40;;;;;;;6.03;5.43;;;16.00;15.90;;;;;;5011760;28;20951;-54
2023/10/08 04:47:12;;;;;;;8.03;6.97;;;16.10;15.90;;;;;;5011152;28;20494;-54
2023/10/08 04:49:45;;;;;;;9.30;6.97;;;16.10;15.70;;;;;;5011036;28;20948;-51
2023/10/08 04:52:14;;;;;;;6.87;6.27;;;16.10;15.80;;;;;;5011054;28;20472;-55
2023/10/08 04:54:41;;;;;;;7.97;6.97;;;16.10;16.00;;;;;;5010641;28;20735;-63
2023/10/08 04:57:15;;;;;;;6.50;5.90;;;16.10;15.90;;;;;;5010743;28;20420;-63
2023/10/08 04:59:42;;;;;;;7.00;6.40;;;16.20;15.90;;;;;;5010287;28;20936;-63
2023/10/08 05:05:06;;;;;;;7.37;6.60;;;16.20;15.90;;;;;;5011934;28;20440;-63
2023/10/08 05:15:33;;;;;;;6.67;5.97;;;16.20;16.20;;;;;;5011813;28;20416;-62
2023/10/08 05:18:13;;;;;;;7.57;6.80;;;16.20;16.50;;;;;;5010876;28;20188;-65
2023/10/08 05:26:08;;;;;;;9.90;7.30;;;16.30;17.30;;;;;;5011959;28;20419;-61
2023/10/08 05:31:36;;;;;;;7.10;6.13;;;16.30;17.50;;;;;;5011691;28;20884;-60
2023/10/08 05:36:35;;;;;;;7.97;7.33;;;16.30;17.10;;;;;;5010984;28;20401;-62
2023/10/08 05:39:04;;;;;;;7.43;6.73;;;16.20;17.00;;;;;;5010107;28;20858;-50
2023/10/08 05:41:51;;;;;;;6.10;5.57;;;16.20;17.10;;;;;;5004525;28;20432;-49
2023/10/08 05:47:12;;;;;;;7.30;6.60;;;16.20;17.00;;;;;;5008504;28;20435;-63
2023/10/08 05:49:43;;;;;;;6.90;6.20;;;16.10;17.20;;;;;;5010577;28;20604;-53
2023/10/08 05:52:24;;;;;;;7.30;6.60;;;16.20;17.20;;;;;;5009721;28;20468;-54
2023/10/08 05:57:40;;;;;;;7.20;6.50;;;16.10;17.00;;;;;;5011568;28;20415;-55
2023/10/08 06:08:12;;;;;;;7.63;7.03;;;16.10;17.10;;;;;;5012151;28;20428;-62
2023/10/08 06:13:29;;;;;;;6.70;6.10;;;16.10;17.70;;;;;;5012070;28;20475;-62
2023/10/08 06:18:28;;;;;;;6.30;5.80;;;16.10;17.80;;;;;;5009961;28;20769;-59
2023/10/08 06:20:54;;;;;;;8.43;7.63;;;16.10;17.80;;;;;;5009347;28;20471;-53
2023/10/08 06:23:22;;;;;;;9.33;7.00;;;16.10;17.80;;;;;;5009277;28;20448;-53
2023/10/08 06:26:05;;;;;;;7.87;7.20;;;16.10;17.80;;;;;;5009004;28;20431;-54
2023/10/08 06:28:34;;;;;;;9.20;7.03;;;16.10;17.80;;;;;;5009592;28;20491;-57
2023/10/08 06:31:02;;;;;;;8.80;7.90;;;16.10;17.80;;;;;;5009695;28;20862;-58
2023/10/08 06:33:33;;;;;;;7.17;6.57;;;16.20;18.00;;;;;;5008609;28;20426;-58
2023/10/08 06:36:02;;;;;;;7.63;6.77;;;16.10;17.70;;;;;;5009175;28;20424;-58
2023/10/08 06:38:34;;;;;;;8.10;7.20;;;16.20;17.70;;;;;;5008318;28;20421;-58
2023/10/08 06:41:06;;;;;;;7.80;7.13;;;16.20;18.10;;;;;;5009340;28;20535;-58
2023/10/08 06:43:34;;;;;;;7.83;6.60;;;16.10;17.90;;;;;;5009163;28;20420;-59
2023/10/08 06:46:00;;;;;;;8.67;6.90;;;16.10;17.90;;;;;;5009331;28;20435;-57
2023/10/08 06:48:29;;;;;;;7.67;7.07;;;16.10;17.90;;;;;;5006157;28;20503;-57
2023/10/08 06:50:58;;;;;;;7.70;7.00;;;16.10;17.80;;;;;;4997472;28;20268;-57
2023/10/08 06:53:24;;;;;;;8.63;6.77;;;16.10;17.60;;;;;;4989497;28;20525;-57
2023/10/08 06:55:56;;;;;;;8.57;7.43;;;16.20;18.00;;;;;;4989450;28;20608;-57
2023/10/08 06:58:25;;;;;;;9.57;7.33;;;16.20;17.90;;;;;;4991957;28;20952;-57
2023/10/08 07:00:52;;;;;;;7.40;6.67;;;16.20;18.10;;;;;;4993554;28;20453;-57
2023/10/08 07:03:18;;;;;;;10.77;7.90;;;16.30;18.10;;;;;;4993313;28;20409;-64
2023/10/08 07:05:57;;;;;;;7.47;6.87;;;16.30;18.10;;;;;;4993267;28;20413;-60
2023/10/08 07:08:25;;;;;;;7.70;7.00;;;16.30;17.40;;;;;;4992208;28;20777;-62
2023/10/08 07:10:51;;;;;;;11.40;8.30;;;16.40;17.40;;;;;;4992911;28;20421;-62
2023/10/08 07:13:18;;;;;;;8.20;7.40;;;16.40;17.50;;;;;;4992350;28;20464;-62
2023/10/08 07:15:46;;;;;;;8.40;7.27;;;16.40;17.60;;;;;;4992453;28;20425;-62
2023/10/08 07:18:21;;;;;;;8.67;7.67;;;16.50;17.60;;;;;;4992964;28;20409;-61
2023/10/08 07:20:53;;;;;;;8.10;7.40;;;16.40;17.20;;;;;;4993980;28;20440;-63
2023/10/08 07:23:18;;;;;;;12.83;7.13;;;16.50;17.40;;;;;;4993355;28;20423;-61
2023/10/08 07:25:53;;;;;;;7.70;7.10;;;16.50;17.70;;;;;;4992423;28;20421;-61
2023/10/08 07:28:19;;;;;;;7.33;6.73;;;16.60;18.20;;;;;;4992988;28;20178;-62
2023/10/08 07:30:46;;;;;;;7.17;6.30;;;16.60;18.10;;;;;;4993612;28;20425;-63
2023/10/08 07:33:17;;;;;;;8.83;7.23;;;16.70;17.60;;;;;;4992410;28;20468;-62
2023/10/08 07:35:57;;;;;;;11.13;7.00;;;16.70;17.70;;;;;;4992327;28;20421;-54
2023/10/08 07:38:27;;;;;;;11.30;9.07;;;16.80;17.90;;;;;;4992805;28;20431;-56
2023/10/08 07:40:55;;;;;;;8.23;7.53;;;16.80;17.80;;;;;;4992998;28;20409;-55
2023/10/08 07:43:21;;;;;;;9.27;7.03;;;16.90;16.90;;;;;;4993020;28;20416;-55
2023/10/08 07:45:46;;;;;;;8.57;7.40;;;17.00;16.60;;;;;;4993065;28;20508;-55
2023/10/08 07:48:13;;;;;;;8.53;7.77;;;17.00;16.90;;;;;;4992695;28;20528;-56
2023/10/08 07:50:45;;;;;;;8.73;7.83;;;17.10;16.10;;;;;;4992504;28;20201;-55
2023/10/08 07:53:17;;;;;;;8.40;7.67;;;17.10;15.70;;;;;;4992142;28;20529;-55
2023/10/08 07:55:45;;;;;;;12.33;6.60;;;17.10;15.70;;;;;;4992305;28;20939;-62
2023/10/08 07:58:11;;;;;;;9.40;7.73;;;17.20;16.10;;;;;;4992531;28;20499;-63
2023/10/08 08:00:38;;;;;;;10.00;6.83;;;17.20;16.50;;;;;;4992204;28;20453;-63
2023/10/08 08:03:04;;;;;;;8.00;7.40;;;17.30;17.10;;;;;;4992268;28;20276;-63
2023/10/08 08:05:31;;;;;;;7.90;7.20;;;17.30;16.70;;;;;;4992223;28;20449;-62
2023/10/08 08:07:59;;;;;;;8.30;7.00;;;17.40;16.90;;;;;;4992667;28;20425;-62
2023/10/08 08:10:25;;;;;;;8.17;7.37;;;17.40;16.80;;;;;;4991828;28;20921;-63
2023/10/08 08:12:56;;;;;;;7.77;7.07;;;17.40;16.50;;;;;;4992164;28;20468;-63
2023/10/08 08:15:22;;;;;;;7.27;6.77;;;17.50;17.30;;;;;;4991438;28;20508;-63
2023/10/08 08:17:48;;;;;;;7.37;6.63;;;17.50;17.80;;;;;;4992261;28;20835;-63
2023/10/08 08:20:34;;;;;;;7.40;6.70;;;17.50;17.40;;;;;;4992193;28;20413;-63
2023/10/08 08:23:06;;;;;;;7.97;7.10;;;17.50;17.10;;;;;;4992203;28;20520;-62
2023/10/08 08:25:45;;;;;;;10.00;7.27;;;17.50;16.30;;;;;;4991650;28;20421;-62
2023/10/08 08:28:16;;;;;;;7.40;6.70;;;17.60;16.10;;;;;;4992189;28;20995;-63
2023/10/08 08:30:46;;;;;;;8.07;6.10;;;17.60;15.80;;;;;;4992067;28;20412;-63
2023/10/08 08:33:14;;;;;;;6.97;6.30;;;17.60;16.00;;;;;;4991725;28;20468;-63
2023/10/08 08:35:39;;;;;;;8.13;6.60;;;17.60;16.00;;;;;;4991863;28;20424;-63
2023/10/08 08:38:08;;;;;;;7.10;5.80;;;17.60;15.50;;;;;;4991616;28;20425;-62
2023/10/08 08:40:34;;;;;;;7.40;6.70;;;17.60;15.80;;;;;;4991793;28;20523;-63
2023/10/08 08:43:04;;;;;;;8.07;7.30;;;17.70;16.30;;;;;;4991500;28;20425;-62
2023/10/08 08:45:33;;;;;;;8.47;7.67;;;17.70;16.60;;;;;;4991265;28;20182;-62
2023/10/08 08:47:59;;;;;;;7.60;6.90;;;17.70;17.00;;;;;;4991207;28;20851;-63
2023/10/08 08:50:26;;;;;;;8.70;8.00;;;17.80;17.20;;;;;;4991654;28;20468;-62
2023/10/08 08:52:53;;;;;;;7.67;7.07;;;17.70;16.90;;;;;;4991201;28;20622;-63
2023/10/08 08:55:20;;;;;;;8.73;7.93;;;17.80;17.00;;;;;;4988646;28;20914;-63
2023/10/08 08:57:50;;;;;;;8.47;7.43;;;17.80;17.10;;;;;;4995852;28;20429;-63
2023/10/08 09:00:18;;;;;;;7.93;7.13;;;17.80;16.90;;;;;;4990771;28;20409;-62
2023/10/08 09:02:49;;;;;;;7.53;6.83;;;17.90;16.90;;;;;;5002435;28;20463;-63
2023/10/08 09:05:33;;;;;;;9.80;8.77;;;18.00;17.00;;;;;;5009484;28;20865;-56
2023/10/08 09:08:07;;;;;;;11.93;9.90;;;18.00;17.30;;;;;;5009273;28;20420;-54
2023/10/08 09:10:37;;;;;;;8.90;8.13;;;18.10;17.00;;;;;;5008671;28;20430;-54
2023/10/08 09:13:05;;;;;;;12.70;8.40;;;18.10;16.10;;;;;;5005425;28;20461;-56
2023/10/08 09:15:34;;;;;;;8.67;7.83;;;18.30;16.10;;;;;;4989038;28;20857;-56
2023/10/08 09:18:00;;;;;;;13.40;7.23;;;18.40;17.00;;;;;;4991882;28;20863;-54
2023/10/08 09:20:27;;;;;;;8.63;7.83;;;18.60;16.80;;;;;;4989093;28;20425;-56
2023/10/08 09:23:07;;;;;;;8.10;7.40;;;18.70;16.20;;;;;;4990072;28;20421;-62
2023/10/08 09:25:33;;;;;;;10.47;7.03;;;18.90;15.60;;;;;;4988792;28;20420;-63
2023/10/08 09:27:59;;;;;;;8.33;7.30;;;19.00;15.80;;;;;;4989160;28;20421;-64
2023/10/08 09:30:25;;;;;;;7.43;6.73;;;19.10;15.50;;;;;;4990036;28;20421;-63
2023/10/08 09:32:51;;;;;;;8.30;6.90;;;19.20;14.80;;;;;;4996153;28;20290;-63
2023/10/08 09:35:18;;;;;;;6.80;6.10;;;19.20;13.30;;;;;;5007434;28;20476;-63
2023/10/08 09:37:45;;;;;;;6.50;5.90;;;19.20;13.00;;;;;;5008131;28;20189;-64
2023/10/08 09:40:11;;;;;;;7.57;6.73;;;19.30;13.90;;;;;;4999279;28;20806;-62
2023/10/08 09:42:43;;;;;;;11.83;10.03;;;19.20;14.60;;;;;;5007181;28;20818;-62
2023/10/08 09:45:09;;;;;;;8.93;7.40;;;19.30;14.60;;;;;;5006657;28;20416;-62
2023/10/08 09:47:42;;;;;;;8.37;7.67;;;19.30;14.60;;;;;;5006641;28;20444;-62
2023/10/08 09:50:12;;;;;;;8.40;7.37;;;19.30;14.50;;;;;;5006842;28;20419;-62
2023/10/08 09:52:57;;;;;;;9.20;6.80;;;19.30;14.70;;;;;;5010248;28;20468;-63
2023/10/08 09:55:23;;;;;;;6.27;5.67;;;19.40;14.70;;;;;;5009720;28;20413;-62
2023/10/08 09:57:51;;;;;;;7.17;6.57;;;19.40;14.30;;;;;;5010187;28;20503;-57
2023/10/08 10:00:29;;;;;;;11.80;10.60;;;19.40;14.30;;;;;;5010351;28;20837;-57
2023/10/08 10:02:55;;;;;;;14.40;8.50;;;19.40;14.60;;;;;;5009730;28;20420;-56
2023/10/08 10:05:21;;;;;;;8.10;7.40;;;19.40;14.30;;;;;;5009839;28;20416;-56
2023/10/08 10:07:50;;;;;;;11.17;7.87;;;19.40;14.20;;;;;;5006728;28;20431;-56
2023/10/08 10:10:26;;;;;;;10.37;7.80;;;19.40;14.80;;;;;;5008522;28;20184;-56
2023/10/08 10:12:52;;;;;;;9.93;7.00;;;19.40;14.10;;;;;;5006993;28;20468;-57
2023/10/08 10:15:21;;;;;;;7.23;6.60;;;19.50;14.50;;;;;;5007708;28;20424;-56
2023/10/08 10:17:47;;;;;;;9.20;7.40;;;19.50;14.00;;;;;;5007788;28;20588;-54
2023/10/08 10:20:13;;;;;;;7.60;6.90;;;19.50;13.90;;;;;;4998410;28;20504;-58
2023/10/08 10:22:42;;;;;;;7.17;6.50;;;19.60;14.20;;;;;;5009306;28;20174;-56
2023/10/08 10:25:20;;;;;;;8.27;6.30;;;19.60;13.60;;;;;;5006931;28;20430;-55
2023/10/08 10:27:58;;;;;;;9.27;7.40;;;19.70;13.40;;;;;;5009796;28;20439;-56
2023/10/08 10:30:27;;;;;;;7.80;5.87;;;19.70;13.40;;;;;;5003572;28;20424;-56
2023/10/08 10:32:53;;;;;;;7.53;6.80;;;19.80;13.40;;;;;;5008132;28;20471;-57
2023/10/08 10:35:19;;;;;;;7.30;6.27;;;19.80;13.10;;;;;;5003437;28;20438;-56
2023/10/08 10:38:03;;;;;;;7.10;6.40;;;19.90;13.30;;;;;;5004399;28;20453;-56
2023/10/08 10:40:39;;;;;;;7.00;6.50;;;19.90;13.00;;;;;;5008393;28;20422;-57
2023/10/08 10:43:06;;;;;;;8.03;7.33;;;20.00;13.10;;;;;;5002005;28;20440;-56
2023/10/08 10:45:50;;;;;;;6.80;6.20;;;20.10;13.20;;;;;;5008652;28;20430;-56
2023/10/08 10:56:19;;;;;;;8.43;7.53;;;20.30;12.90;;;;;;5001713;28;20463;-63
2023/10/08 10:58:53;;;;;;;7.87;6.70;;;20.30;13.30;;;;;;5009906;28;20425;-63
2023/10/08 11:01:23;;;;;;;7.97;7.13;;;20.30;13.30;;;;;;5009691;28;20181;-61
2023/10/08 11:03:53;;;;;;;8.00;7.20;;;20.20;13.50;;;;;;5009502;28;20425;-61
2023/10/08 11:06:23;;;;;;;9.90;7.27;;;20.30;13.70;;;;;;5007086;28;20427;-61
2023/10/08 11:08:50;;;;;;;7.73;6.70;;;20.20;13.60;;;;;;5005385;28;20436;-62
2023/10/08 11:11:17;;;;;;;7.30;6.60;;;20.30;13.40;;;;;;5006552;28;20508;-62
2023/10/08 11:13:46;;;;;;;7.10;6.50;;;20.30;13.80;;;;;;5002004;28;20425;-62
2023/10/08 11:16:15;;;;;;;10.57;6.93;;;20.30;13.30;;;;;;5004141;28;20423;-62
2023/10/08 11:18:50;;;;;;;7.57;6.90;;;20.30;14.60;;;;;;5008758;28;20424;-62
2023/10/08 11:21:16;;;;;;;8.57;7.77;;;20.30;14.80;;;;;;5009592;28;20185;-61
2023/10/08 11:23:55;;;;;;;6.77;6.07;;;20.20;13.90;;;;;;5009346;28;20467;-64
2023/10/08 11:26:31;;;;;;;7.67;6.80;;;20.20;14.30;;;;;;5009323;28;20443;-62
2023/10/08 11:29:00;;;;;;;9.50;6.60;;;20.20;14.10;;;;;;5011229;28;20420;-63
2023/10/08 11:31:28;;;;;;;7.83;6.97;;;20.20;14.50;;;;;;5009541;28;20554;-61
2023/10/08 11:33:59;;;;;;;9.07;7.33;;;20.20;13.90;;;;;;5009781;28;20431;-62
2023/10/08 11:36:28;;;;;;;7.57;6.80;;;20.20;14.50;;;;;;5002143;28;20417;-62
2023/10/08 11:39:00;;;;;;;8.60;6.70;;;20.20;14.30;;;;;;5003547;28;20478;-63
2023/10/08 11:41:27;;;;;;;7.50;6.83;;;20.20;14.00;;;;;;5007212;28;20421;-62
2023/10/08 11:43:57;;;;;;;8.20;7.00;;;20.30;14.20;;;;;;5008959;28;20455;-62
2023/10/08 11:46:32;;;;;;;7.30;6.70;;;20.30;14.80;;;;;;5000790;28;20452;-63
2023/10/08 11:49:03;;;;;;;8.00;7.17;;;20.40;13.30;;;;;;5007840;28;20440;-63
2023/10/08 11:51:34;;;;;;;8.23;7.43;;;20.60;13.00;;;;;;5003709;28;20622;-56
2023/10/08 11:54:01;;;;;;;7.17;6.13;;;20.70;13.50;;;;;;5012435;28;20432;-57
2023/10/08 11:56:29;;;;;;;9.93;7.53;;;20.80;13.30;;;;;;5012044;28;20424;-57
2023/10/08 11:58:56;;;;;;;7.63;6.80;;;20.80;13.30;;;;;;5007595;28;20417;-57
2023/10/08 12:01:23;;;;;;;7.00;6.40;;;20.80;13.60;;;;;;5005073;28;20933;-56
2023/10/08 12:03:49;;;;;;;10.30;6.77;;;20.80;13.60;;;;;;5013008;28;20774;-57
2023/10/08 12:06:18;;;;;;;7.17;6.60;;;20.80;13.60;;;;;;5002062;28;20425;-57
2023/10/08 12:08:49;;;;;;;7.97;6.83;;;20.80;13.60;;;;;;5001501;28;20456;-57
2023/10/08 12:11:15;;;;;;;7.20;6.50;;;20.80;13.60;;;;;;5008203;28;20524;-57
2023/10/08 12:13:45;;;;;;;8.10;6.90;;;20.80;13.60;;;;;;5012168;28;20455;-57
2023/10/08 12:16:17;;;;;;;7.40;6.77;;;20.90;13.30;;;;;;5009396;28;20425;-57
2023/10/08 12:18:45;;;;;;;7.60;6.70;;;21.00;13.70;;;;;;5009253;28;20413;-57
2023/10/08 12:21:14;;;;;;;8.90;7.20;;;21.10;12.60;;;;;;5008135;28;20416;-57
2023/10/08 12:23:43;;;;;;;8.80;7.50;;;21.20;12.70;;;;;;5012251;28;20421;-55
2023/10/08 12:26:09;;;;;;;10.47;6.10;;;21.20;12.30;;;;;;5011688;28;20434;-56
2023/10/08 12:28:36;;;;;;;8.93;6.47;;;21.30;12.10;;;;;;5006106;28;20448;-57
2023/10/08 12:31:03;;;;;;;6.83;6.17;;;21.40;11.70;;;;;;5012291;28;20428;-57
2023/10/08 12:33:29;;;;;;;14.53;6.47;;;21.50;11.30;;;;;;5012316;28;20515;-57
2023/10/08 12:35:55;;;;;;;6.47;5.70;;;21.60;10.30;;;;;;5009178;28;20417;-57
2023/10/08 12:38:27;;;;;;;8.23;7.10;;;21.60;10.00;;;;;;5009086;28;20921;-57
2023/10/08 12:40:54;;;;;;;7.67;6.87;;;21.70;10.30;;;;;;5012173;28;20419;-56
2023/10/08 12:43:27;;;;;;;11.80;7.20;;;21.70;10.10;;;;;;5012331;28;20421;-57
2023/10/08 12:45:54;;;;;;;8.90;6.07;;;21.80;9.60;;;;;;5012198;28;20435;-58
2023/10/08 12:48:25;;;;;;;7.53;6.70;;;21.90;9.10;;;;;;5012018;28;20436;-57
2023/10/08 12:50:58;;;;;;;8.43;6.40;;;22.00;9.40;;;;;;5012051;28;21104;-57
2023/10/08 12:53:33;;;;;;;6.30;5.70;;;22.10;8.60;;;;;;5009158;28;20476;-56
2023/10/08 12:56:05;;;;;;;8.43;7.60;;;22.50;7.90;;;;;;5008816;28;20420;-57
2023/10/08 12:58:31;;;;;;;10.13;7.10;;;22.60;6.60;;;;;;5011849;28;20456;-57
2023/10/08 13:00:57;;;;;;;7.03;6.20;;;22.70;6.30;;;;;;5012267;28;20420;-57
2023/10/08 13:03:30;;;;;;;6.40;5.43;;;22.70;6.80;;;;;;5012093;28;20594;-57
2023/10/08 13:06:03;;;;;;;13.53;6.97;;;22.70;6.30;;;;;;5012221;28;20239;-57
2023/10/08 13:08:31;;;;;;;8.50;5.90;;;22.80;5.40;;;;;;5012148;28;20412;-57
2023/10/08 13:11:00;;;;;;;12.17;6.97;;;22.80;5.00;;;;;;5012108;28;20430;-57
2023/10/08 13:13:27;;;;;;;9.87;6.40;;;22.90;4.50;;;;;;5011676;28;20492;-57
2023/10/08 13:15:55;;;;;;;13.90;7.40;;;23.00;3.90;;;;;;5011573;28;20509;-57
2023/10/08 13:18:27;;;;;;;11.93;6.00;;;23.00;4.10;;;;;;5010915;28;20428;-57
2023/10/08 13:20:53;;;;;;;8.60;4.90;;;23.10;4.10;;;;;;5011633;28;20452;-57
2023/10/08 13:23:23;;;;;;;12.37;6.77;;;23.20;3.80;;;;;;5011552;28;20417;-57
2023/10/08 13:25:58;;;;;;;6.10;5.57;;;23.20;4.30;;;;;;5000437;28;20425;-57
2023/10/08 13:28:26;;;;;;;10.33;5.60;;;23.20;4.20;;;;;;5008578;28;20423;-57
2023/10/08 13:30:52;;;;;;;8.47;5.77;;;23.20;4.10;;;;;;5008134;28;20475;-57
2023/10/08 13:33:24;;;;;;;13.23;6.10;;;23.20;4.40;;;;;;5007565;28;20823;-57
2023/10/08 13:35:50;;;;;;;4.97;4.60;;;23.30;4.60;;;;;;5011273;28;20743;-57
2023/10/08 13:38:20;;;;;;;6.47;5.90;;;23.30;4.50;;;;;;5011315;28;20407;-57
2023/10/08 13:43:34;;;;;;;8.70;5.50;;;23.30;4.70;;;;;;5012737;28;20482;-56
2023/10/08 13:46:06;;;;;;;7.40;5.37;;;23.20;5.30;;;;;;5010901;28;20921;-55
2023/10/08 13:48:32;;;;;;;13.57;5.53;;;23.30;4.80;;;;;;5009741;28;20953;-57
2023/10/08 13:51:00;;;;;;;9.60;5.33;;;23.30;4.60;;;;;;5004162;28;20439;-56
2023/10/08 13:53:29;;;;;;;6.83;5.73;;;23.30;4.60;;;;;;5008691;28;20468;-61
2023/10/08 13:56:00;;;;;;;10.90;6.53;;;23.20;4.50;;;;;;5007603;28;20429;-61
2023/10/08 13:58:28;;;;;;;9.80;5.87;;;23.20;4.70;;;;;;5010547;28;20428;-62
2023/10/08 14:00:54;;;;;;;6.47;5.23;;;23.20;4.70;;;;;;5010884;28;20511;-62
2023/10/08 14:03:24;;;;;;;9.30;6.10;;;23.20;4.70;;;;;;5001617;28;20524;-61
2023/10/08 14:05:51;;;;;;;8.90;6.00;;;23.20;4.40;;;;;;5010304;28;20417;-61
2023/10/08 14:08:22;;;;;;;8.60;6.10;;;23.20;4.80;;;;;;5010862;28;20507;-62